createdAt,value
2022-09-30T00:01:22.068Z,6.65
2022-09-30T00:03:24.410Z,6.40
2022-09-30T00:05:26.310Z,7.07
2022-09-30T00:07:27.967Z,7.53
2022-09-30T00:09:29.780Z,6.43
2022-09-30T00:11:34.040Z,7.03
2022-09-30T00:13:38.019Z,6.78
2022-09-30T00:15:40.098Z,6.55
2022-09-30T00:17:41.908Z,6.20
2022-09-30T00:19:43.768Z,6.63
2022-09-30T00:21:45.676Z,6.68
2022-09-30T00:23:47.434Z,7.25
2022-09-30T00:25:49.119Z,7.07
2022-09-30T00:27:50.876Z,6.78
2022-09-30T00:29:52.561Z,6.50
2022-09-30T00:31:54.446Z,6.40
2022-09-30T00:34:14.421Z,6.53
2022-09-30T00:36:16.122Z,7.10
2022-09-30T00:38:17.782Z,6.20
2022-09-30T00:40:20.164Z,6.95
2022-09-30T00:42:22.694Z,6.65
2022-09-30T00:45:06.556Z,6.45
2022-09-30T00:47:42.396Z,6.47
2022-09-30T00:49:44.094Z,6.97
2022-09-30T00:51:49.398Z,6.97
2022-09-30T00:53:58.350Z,7.03
2022-09-30T00:56:06.929Z,7.00
2022-09-30T00:58:09.906Z,7.25
2022-09-30T01:00:11.734Z,7.65
2022-09-30T01:02:14.581Z,7.50
2022-09-30T01:04:18.280Z,7.85
2022-09-30T01:06:22.779Z,8.07
2022-09-30T01:08:25.498Z,8.43
2022-09-30T01:10:27.264Z,7.85
2022-09-30T01:12:29.041Z,8.32
2022-09-30T01:14:30.721Z,8.07
2022-09-30T01:17:07.861Z,7.85
2022-09-30T01:19:27.901Z,7.78
2022-09-30T01:22:19.999Z,8.15
2022-09-30T01:24:58.854Z,7.90
2022-09-30T01:27:23.524Z,8.18
2022-09-30T01:29:31.393Z,7.95
2022-09-30T01:31:52.627Z,8.60
2022-09-30T01:34:06.593Z,9.15
2022-09-30T01:36:40.369Z,8.25
2022-09-30T01:39:08.401Z,8.82
2022-09-30T01:41:26.186Z,8.13
2022-09-30T01:43:45.485Z,8.32
2022-09-30T01:45:52.257Z,8.05
2022-09-30T01:48:01.925Z,8.88
2022-09-30T01:50:18.195Z,8.63
2022-09-30T01:52:28.348Z,8.90
2022-09-30T01:54:36.114Z,8.15
2022-09-30T01:57:07.018Z,9.23
2022-09-30T01:59:13.466Z,8.63
2022-09-30T02:01:31.824Z,10.32
2022-09-30T02:03:40.442Z,9.13
2022-09-30T02:05:53.681Z,9.13
2022-09-30T02:07:58.988Z,10.40
2022-09-30T02:10:10.936Z,10.07
2022-09-30T02:12:16.133Z,8.98
2022-09-30T02:14:28.822Z,11.60
2022-09-30T02:16:47.440Z,9.90
2022-09-30T02:18:53.007Z,10.63
2022-09-30T02:20:59.660Z,11.50
2022-09-30T02:23:07.716Z,11.40
2022-09-30T02:25:15.118Z,10.57
2022-09-30T02:27:21.604Z,10.27
2022-09-30T02:29:27.831Z,10.55
2022-09-30T02:31:32.392Z,10.82
2022-09-30T02:33:49.702Z,10.75
2022-09-30T02:35:57.723Z,9.40
2022-09-30T02:38:20.222Z,10.48
2022-09-30T02:40:39.892Z,8.85
2022-09-30T02:42:44.090Z,9.45
2022-09-30T02:44:47.494Z,8.77
2022-09-30T02:46:56.977Z,9.50
2022-09-30T02:49:20.014Z,8.85
2022-09-30T02:51:30.063Z,8.98
2022-09-30T02:53:46.297Z,9.57
2022-09-30T02:56:15.279Z,9.45
2022-09-30T02:58:21.472Z,9.50
2022-09-30T03:00:24.219Z,10.82
2022-09-30T03:02:25.965Z,10.63
2022-09-30T03:04:31.165Z,10.18
2022-09-30T03:06:33.040Z,11.43
2022-09-30T03:08:35.112Z,10.45
2022-09-30T03:10:37.000Z,13.43
2022-09-30T03:12:58.971Z,12.15
2022-09-30T03:15:20.831Z,11.80
2022-09-30T03:17:44.779Z,11.27
2022-09-30T03:19:46.346Z,10.20
2022-09-30T03:22:11.590Z,10.80
2022-09-30T03:24:13.304Z,13.00
2022-09-30T03:26:37.753Z,12.30
2022-09-30T03:29:01.123Z,15.75
2022-09-30T03:31:38.545Z,15.55
2022-09-30T03:33:53.298Z,16.33
2022-09-30T03:36:06.775Z,15.65
2022-09-30T03:38:41.660Z,13.57
2022-09-30T03:41:01.024Z,14.57
2022-09-30T03:43:14.161Z,13.77
2022-09-30T03:45:30.451Z,14.55
2022-09-30T03:47:35.218Z,14.02
2022-09-30T03:49:43.243Z,13.88
2022-09-30T03:51:45.135Z,14.27
2022-09-30T03:53:47.078Z,14.77
2022-09-30T03:55:51.543Z,14.50
2022-09-30T03:57:54.454Z,15.02
2022-09-30T04:00:00.030Z,14.30
2022-09-30T04:02:02.599Z,12.75
2022-09-30T04:04:04.369Z,13.38
2022-09-30T04:06:09.831Z,13.65
2022-09-30T04:08:11.906Z,13.60
2022-09-30T04:10:13.465Z,12.68
2022-09-30T04:12:15.082Z,12.55
2022-09-30T04:14:16.951Z,12.63
2022-09-30T04:16:19.083Z,12.60
2022-09-30T04:18:20.741Z,13.65
2022-09-30T04:20:22.473Z,13.52
2022-09-30T04:22:26.486Z,13.88
2022-09-30T04:24:28.327Z,13.10
2022-09-30T04:26:30.125Z,13.52
2022-09-30T04:28:32.244Z,12.68
2022-09-30T04:30:33.933Z,12.43
2022-09-30T04:32:35.627Z,13.40
2022-09-30T04:34:37.883Z,13.15
2022-09-30T04:36:39.886Z,13.18
2022-09-30T04:38:41.535Z,13.90
2022-09-30T04:40:43.471Z,14.93
2022-09-30T04:42:45.242Z,13.20
2022-09-30T04:44:48.213Z,14.13
2022-09-30T04:46:50.784Z,14.02
2022-09-30T04:48:52.336Z,14.27
2022-09-30T04:50:54.067Z,13.50
2022-09-30T04:52:56.989Z,15.07
2022-09-30T04:54:58.801Z,16.70
2022-09-30T04:57:00.430Z,15.00
2022-09-30T04:59:02.092Z,14.48
2022-09-30T05:01:12.807Z,14.57
2022-09-30T05:03:15.098Z,13.55
2022-09-30T05:05:16.854Z,14.43
2022-09-30T05:07:18.580Z,15.27
2022-09-30T05:09:20.370Z,15.35
2022-09-30T05:11:22.727Z,15.95
2022-09-30T05:13:26.024Z,15.55
2022-09-30T05:15:27.907Z,16.58
2022-09-30T05:17:30.706Z,17.38
2022-09-30T05:19:32.475Z,18.10
2022-09-30T05:21:34.170Z,16.73
2022-09-30T05:23:35.856Z,17.52
2022-09-30T05:25:37.472Z,16.17
2022-09-30T05:27:39.070Z,17.35
2022-09-30T05:29:40.662Z,17.75
2022-09-30T05:31:42.870Z,17.83
2022-09-30T05:33:45.196Z,16.55
2022-09-30T05:35:47.819Z,17.40
2022-09-30T05:37:49.518Z,17.73
2022-09-30T05:39:51.179Z,17.63
2022-09-30T05:41:52.802Z,18.48
2022-09-30T05:43:54.529Z,18.40
2022-09-30T05:45:57.321Z,19.85
2022-09-30T05:47:58.993Z,20.73
2022-09-30T05:50:00.745Z,20.35
2022-09-30T05:52:02.537Z,20.67
2022-09-30T05:54:04.129Z,20.73
2022-09-30T05:56:07.504Z,22.52
2022-09-30T05:58:09.100Z,23.25
2022-09-30T06:00:11.456Z,27.13
2022-09-30T06:02:14.378Z,23.33
2022-09-30T06:04:16.315Z,24.67
2022-09-30T06:06:19.639Z,27.10
2022-09-30T06:08:21.653Z,26.08
2022-09-30T06:10:24.252Z,26.35
2022-09-30T06:12:27.633Z,27.88
2022-09-30T06:14:29.547Z,25.92
2022-09-30T06:16:32.131Z,24.67
2022-09-30T06:18:33.823Z,25.67
2022-09-30T06:20:38.991Z,25.00
2022-09-30T06:22:43.429Z,25.08
2022-09-30T06:24:45.833Z,23.58
2022-09-30T06:26:47.479Z,23.20
2022-09-30T06:28:50.276Z,24.58
2022-09-30T06:30:51.889Z,62.37
2022-09-30T06:32:57.132Z,53.30
2022-09-30T06:34:58.807Z,55.75
2022-09-30T06:37:01.366Z,26.88
2022-09-30T06:39:04.852Z,30.17
2022-09-30T06:41:07.289Z,24.65
2022-09-30T06:43:09.415Z,22.48
2022-09-30T06:45:20.306Z,23.13
2022-09-30T06:47:26.159Z,23.05
2022-09-30T06:49:34.937Z,22.67
2022-09-30T06:51:42.677Z,24.75
2022-09-30T06:53:44.481Z,23.70
2022-09-30T06:55:46.140Z,23.90
2022-09-30T06:57:48.266Z,24.63
2022-09-30T06:59:50.735Z,24.52
2022-09-30T07:01:52.675Z,24.88
2022-09-30T07:03:58.292Z,26.60
2022-09-30T07:06:01.865Z,26.80
2022-09-30T07:08:03.732Z,26.30
2022-09-30T07:10:05.914Z,27.60
2022-09-30T07:12:07.559Z,26.95
2022-09-30T07:14:10.285Z,27.33
2022-09-30T07:16:15.698Z,31.25
2022-09-30T07:18:20.557Z,29.52
2022-09-30T07:20:22.461Z,28.90
2022-09-30T07:22:34.623Z,32.47
2022-09-30T07:24:36.500Z,31.73
2022-09-30T07:26:39.616Z,30.73
2022-09-30T07:28:41.628Z,29.23
2022-09-30T07:30:43.862Z,30.50
2022-09-30T07:32:45.479Z,32.72
2022-09-30T07:34:47.455Z,30.17
2022-09-30T07:36:49.498Z,31.88
2022-09-30T07:38:51.519Z,28.33
2022-09-30T07:41:06.866Z,28.98
2022-09-30T07:43:28.013Z,28.08
2022-09-30T07:45:29.658Z,24.42
2022-09-30T07:47:31.329Z,23.70
2022-09-30T07:49:32.957Z,22.35
2022-09-30T07:51:38.593Z,24.52
2022-09-30T07:53:41.237Z,21.70
2022-09-30T07:55:42.788Z,21.45
2022-09-30T07:57:44.393Z,20.60
2022-09-30T07:59:46.075Z,20.02
2022-09-30T08:01:47.734Z,20.88
2022-09-30T08:03:53.478Z,23.15
2022-09-30T08:05:55.342Z,24.60
2022-09-30T08:07:56.920Z,24.58
2022-09-30T08:09:58.550Z,22.98
2022-09-30T08:12:02.870Z,22.58
2022-09-30T08:14:05.507Z,21.98
2022-09-30T08:16:07.712Z,19.77
2022-09-30T08:18:09.636Z,19.67
2022-09-30T08:20:13.795Z,19.35
2022-09-30T08:22:17.325Z,16.75
2022-09-30T08:24:19.105Z,18.55
2022-09-30T08:26:20.790Z,17.25
2022-09-30T08:28:22.383Z,16.30
2022-09-30T08:30:24.158Z,15.43
2022-09-30T08:32:25.872Z,16.80
2022-09-30T08:34:27.533Z,16.17
2022-09-30T08:36:29.552Z,15.95
2022-09-30T08:38:31.256Z,16.30
2022-09-30T08:40:34.409Z,16.23
2022-09-30T08:43:09.220Z,15.93
2022-09-30T08:45:26.109Z,17.85
2022-09-30T08:48:05.367Z,15.50
2022-09-30T08:50:54.256Z,13.98
2022-09-30T08:53:03.888Z,13.80
2022-09-30T08:55:06.394Z,13.70
2022-09-30T08:57:10.871Z,13.52
2022-09-30T08:59:28.578Z,13.20
2022-09-30T09:01:34.887Z,12.77
2022-09-30T09:03:36.613Z,14.30
2022-09-30T09:05:52.489Z,14.35
2022-09-30T09:08:03.538Z,16.75
2022-09-30T09:10:16.584Z,16.60
2022-09-30T09:12:31.636Z,15.63
2022-09-30T09:14:43.647Z,15.68
2022-09-30T09:17:27.057Z,15.73
2022-09-30T09:19:38.476Z,15.95
2022-09-30T09:21:49.211Z,15.00
2022-09-30T09:23:53.692Z,15.05
2022-09-30T09:25:55.774Z,12.75
2022-09-30T09:28:03.518Z,11.73
2022-09-30T09:30:16.457Z,11.75
2022-09-30T09:32:18.990Z,14.82
2022-09-30T09:34:23.535Z,11.10
2022-09-30T09:36:46.310Z,10.60
2022-09-30T09:39:07.086Z,10.23
2022-09-30T09:41:17.517Z,10.52
2022-09-30T09:43:48.342Z,9.98
2022-09-30T09:46:00.574Z,8.32
2022-09-30T09:48:02.273Z,9.20
2022-09-30T09:50:06.646Z,8.05
2022-09-30T09:52:12.479Z,8.45
2022-09-30T09:54:17.374Z,8.18
2022-09-30T09:56:29.720Z,7.25
2022-09-30T09:58:34.192Z,7.63
2022-09-30T10:00:47.959Z,7.15
2022-09-30T10:05:26.448Z,6.90
2022-09-30T10:07:30.325Z,6.80
2022-09-30T10:09:38.193Z,6.07
2022-09-30T10:11:39.816Z,5.20
2022-09-30T10:13:45.410Z,5.15
2022-09-30T10:15:47.990Z,5.32
2022-09-30T10:17:57.791Z,4.73
2022-09-30T10:20:07.594Z,5.05
2022-09-30T10:22:09.299Z,4.95
2022-09-30T10:24:28.755Z,4.95
2022-09-30T10:26:30.395Z,4.50
2022-09-30T10:28:35.111Z,4.30
2022-09-30T10:30:41.000Z,3.47
2022-09-30T10:32:42.626Z,3.83
2022-09-30T10:35:03.387Z,4.22
2022-09-30T10:37:11.460Z,3.47
2022-09-30T10:39:28.910Z,3.55
2022-09-30T10:41:32.509Z,3.50
2022-09-30T10:43:44.903Z,3.60
2022-09-30T10:46:01.320Z,3.17
2022-09-30T10:48:17.915Z,3.33
2022-09-30T10:50:22.737Z,3.38
2022-09-30T10:52:26.665Z,3.45
2022-09-30T10:54:40.681Z,3.38
2022-09-30T10:56:45.171Z,3.30
2022-09-30T10:58:51.804Z,3.33
2022-09-30T11:01:25.141Z,3.10
2022-09-30T11:03:41.130Z,3.33
2022-09-30T11:05:45.020Z,3.22
2022-09-30T11:08:00.252Z,2.92
2022-09-30T11:10:14.075Z,3.30
2022-09-30T11:15:01.186Z,2.88
2022-09-30T11:17:04.075Z,2.88
2022-09-30T11:19:05.606Z,3.17
2022-09-30T11:21:15.506Z,3.67
2022-09-30T11:23:37.478Z,1.70
2022-09-30T11:25:48.825Z,2.00
2022-09-30T11:28:09.827Z,1.60
2022-09-30T11:30:28.095Z,1.70
2022-09-30T11:32:48.316Z,1.77
2022-09-30T11:34:59.760Z,1.73
2022-09-30T11:37:22.678Z,1.60
2022-09-30T11:39:35.093Z,1.70
2022-09-30T11:41:40.592Z,1.52
2022-09-30T11:43:45.309Z,1.70
2022-09-30T11:46:03.353Z,1.77
2022-09-30T11:48:20.668Z,1.88
2022-09-30T11:50:44.386Z,1.88
2022-09-30T11:53:25.261Z,1.35
2022-09-30T11:55:38.859Z,1.65
2022-09-30T11:57:46.273Z,1.50
2022-09-30T12:00:16.413Z,2.03
2022-09-30T12:02:39.299Z,2.00
2022-09-30T12:04:43.104Z,1.65
2022-09-30T12:06:52.050Z,1.80
2022-09-30T12:09:02.401Z,2.00
2022-09-30T12:11:59.794Z,1.73
2022-09-30T12:14:07.614Z,2.20
2022-09-30T12:16:21.999Z,1.95
2022-09-30T12:18:40.242Z,1.67
2022-09-30T12:20:44.801Z,1.80
2022-09-30T12:22:47.752Z,1.90
2022-09-30T12:24:49.353Z,1.80
2022-09-30T12:26:51.521Z,1.80
2022-09-30T12:29:33.573Z,1.67
2022-09-30T12:31:54.798Z,1.90
2022-09-30T12:34:31.877Z,1.95
2022-09-30T12:36:45.540Z,1.70
2022-09-30T12:38:57.892Z,2.20
2022-09-30T12:40:59.424Z,2.28
2022-09-30T12:43:07.701Z,2.40
2022-09-30T12:45:22.233Z,2.00
2022-09-30T12:47:31.563Z,1.98
2022-09-30T12:49:34.055Z,1.67
2022-09-30T12:51:40.552Z,2.40
2022-09-30T12:53:42.396Z,1.48
2022-09-30T12:55:44.339Z,1.98
2022-09-30T12:57:47.310Z,1.60
2022-09-30T12:59:58.117Z,1.60
2022-09-30T13:02:01.372Z,1.92
2022-09-30T13:04:02.971Z,1.63
2022-09-30T13:06:06.700Z,1.85
2022-09-30T13:08:09.802Z,1.83
2022-09-30T13:10:31.055Z,1.65
2022-09-30T13:12:44.366Z,1.65
2022-09-30T13:14:45.982Z,1.80
2022-09-30T13:17:10.293Z,1.50
2022-09-30T13:19:21.243Z,1.30
2022-09-30T13:21:24.034Z,1.27
2022-09-30T13:23:41.972Z,1.50
2022-09-30T13:25:56.379Z,1.77
2022-09-30T13:28:20.687Z,2.10
2022-09-30T13:30:22.464Z,1.67
2022-09-30T13:32:57.660Z,1.70
2022-09-30T13:34:59.609Z,1.90
2022-09-30T13:37:03.300Z,1.60
2022-09-30T13:39:23.157Z,1.50
2022-09-30T13:41:26.185Z,1.80
2022-09-30T13:43:34.134Z,1.60
2022-09-30T13:45:39.574Z,1.85
2022-09-30T13:47:48.226Z,1.42
2022-09-30T13:50:14.094Z,1.58
2022-09-30T13:52:23.748Z,1.80
2022-09-30T13:54:31.894Z,1.40
2022-09-30T13:56:35.268Z,1.60
2022-09-30T13:59:10.335Z,1.67
2022-09-30T14:02:10.822Z,1.50
2022-09-30T14:04:33.338Z,1.20
2022-09-30T14:06:37.743Z,1.70
2022-09-30T14:08:48.143Z,2.00
2022-09-30T14:10:59.963Z,1.60
2022-09-30T14:13:42.567Z,1.65
2022-09-30T14:16:02.041Z,1.58
2022-09-30T14:18:33.149Z,1.55
2022-09-30T14:21:11.355Z,1.67
2022-09-30T14:23:15.038Z,1.40
2022-09-30T14:25:18.808Z,1.90
2022-09-30T14:27:29.079Z,1.50
2022-09-30T14:30:04.557Z,1.48
2022-09-30T14:32:39.749Z,1.60
2022-09-30T14:38:15.565Z,1.80
2022-09-30T14:40:25.305Z,1.90
2022-09-30T14:42:32.318Z,1.42
2022-09-30T14:44:36.539Z,2.70
2022-09-30T14:46:41.284Z,1.70
2022-09-30T14:48:44.102Z,1.67
2022-09-30T14:51:01.226Z,1.52
2022-09-30T14:53:03.669Z,1.80
2022-09-30T14:55:28.861Z,1.75
2022-09-30T14:57:31.470Z,1.60
2022-09-30T14:59:34.748Z,1.50
2022-09-30T15:04:03.674Z,1.73
2022-09-30T15:06:07.143Z,1.58
2022-09-30T15:10:24.135Z,1.90
2022-09-30T15:12:26.821Z,1.70
2022-09-30T15:14:28.672Z,1.80
2022-09-30T15:16:33.692Z,1.80
2022-09-30T15:18:44.626Z,1.88
2022-09-30T15:20:46.333Z,1.60
2022-09-30T15:22:48.710Z,1.90
2022-09-30T15:24:51.403Z,2.10
2022-09-30T15:26:55.633Z,2.30
2022-09-30T15:28:57.441Z,4.10
2022-09-30T15:30:59.250Z,2.03
2022-09-30T15:33:04.161Z,2.13
2022-09-30T15:35:17.303Z,2.85
2022-09-30T15:37:25.063Z,2.30
2022-09-30T15:39:47.541Z,4.45
2022-09-30T15:41:49.980Z,2.70
2022-09-30T15:43:52.671Z,2.28
2022-09-30T15:45:58.301Z,2.53
2022-09-30T15:48:02.592Z,2.88
2022-09-30T15:50:05.289Z,3.05
2022-09-30T15:52:36.342Z,3.25
2022-09-30T15:54:39.305Z,3.42
2022-09-30T15:56:42.408Z,2.72
2022-09-30T15:59:03.241Z,2.90
2022-09-30T16:01:27.836Z,2.63
2022-09-30T16:03:30.584Z,2.13
2022-09-30T16:05:33.044Z,2.95
2022-09-30T16:07:35.024Z,2.75
2022-09-30T16:09:41.197Z,2.63
2022-09-30T16:11:45.244Z,3.35
2022-09-30T16:13:48.178Z,3.15
2022-09-30T16:15:51.076Z,2.67
2022-09-30T16:17:52.740Z,2.70
2022-09-30T16:19:59.287Z,5.03
2022-09-30T16:22:01.277Z,8.88
2022-09-30T16:24:03.040Z,3.50
2022-09-30T16:26:20.904Z,3.30
2022-09-30T16:28:22.673Z,2.75
2022-09-30T16:30:25.071Z,2.90
2022-09-30T16:32:27.599Z,2.83
2022-09-30T16:34:30.023Z,2.63
2022-09-30T16:36:32.808Z,2.88
2022-09-30T16:38:34.853Z,13.30
2022-09-30T16:40:38.007Z,11.60
2022-09-30T16:42:39.598Z,11.00
2022-09-30T16:44:44.576Z,6.88
2022-09-30T16:46:46.285Z,5.55
2022-09-30T16:48:47.861Z,3.95
2022-09-30T16:51:14.544Z,3.78
2022-09-30T16:53:16.181Z,4.18
2022-09-30T16:55:17.799Z,4.40
2022-09-30T16:57:19.490Z,4.50
2022-09-30T16:59:21.084Z,5.32
2022-09-30T17:01:25.455Z,4.75
2022-09-30T17:03:28.187Z,4.68
2022-09-30T17:05:29.833Z,4.70
2022-09-30T17:07:31.414Z,4.30
2022-09-30T17:09:33.113Z,4.35
2022-09-30T17:11:35.862Z,5.85
2022-09-30T17:13:37.944Z,5.05
2022-09-30T17:15:39.826Z,4.32
2022-09-30T17:17:41.456Z,11.05
2022-09-30T17:19:43.092Z,17.13
2022-09-30T17:21:46.078Z,10.15
2022-09-30T17:23:47.986Z,8.30
2022-09-30T17:25:49.954Z,8.30
2022-09-30T17:27:51.766Z,10.45
2022-09-30T17:29:53.396Z,12.70
2022-09-30T17:31:55.807Z,5.80
2022-09-30T17:33:57.567Z,7.50
2022-09-30T17:36:00.712Z,7.68
2022-09-30T17:38:06.844Z,9.02
2022-09-30T17:40:27.867Z,7.47
2022-09-30T17:42:47.759Z,4.72
2022-09-30T17:44:49.496Z,3.85
2022-09-30T17:47:00.787Z,3.55
2022-09-30T17:49:02.408Z,3.00
2022-09-30T17:51:04.327Z,3.30
2022-09-30T17:53:06.302Z,3.58
2022-09-30T17:55:08.194Z,3.10
2022-09-30T17:57:09.946Z,4.85
2022-09-30T17:59:11.545Z,3.55
2022-09-30T18:01:14.031Z,2.83
2022-09-30T18:03:15.969Z,2.85
2022-09-30T18:05:17.569Z,4.07
2022-09-30T18:07:21.068Z,4.13
2022-09-30T18:09:23.646Z,4.60
2022-09-30T18:11:26.931Z,4.35
2022-09-30T18:13:28.759Z,5.15
2022-09-30T18:15:31.233Z,3.95
2022-09-30T18:17:32.896Z,5.35
2022-09-30T18:19:35.751Z,4.65
2022-09-30T18:21:38.001Z,5.22
2022-09-30T18:23:39.841Z,5.00
2022-09-30T18:25:43.884Z,4.80
2022-09-30T18:27:49.825Z,5.20
2022-09-30T18:29:51.821Z,4.05
2022-09-30T18:31:53.463Z,3.80
2022-09-30T18:33:56.019Z,4.60
2022-09-30T18:36:00.265Z,4.10
2022-09-30T18:38:02.445Z,4.72
2022-09-30T18:40:04.857Z,3.75
2022-09-30T18:42:06.739Z,3.88
2022-09-30T18:44:09.109Z,3.92
2022-09-30T18:46:11.578Z,3.70
2022-09-30T18:48:13.594Z,4.80
2022-09-30T18:50:17.256Z,6.35
2022-09-30T18:54:20.915Z,5.85
2022-09-30T18:56:23.656Z,6.97
2022-09-30T18:58:25.894Z,7.10
2022-09-30T19:00:29.821Z,7.40
2022-09-30T19:02:32.440Z,6.43
2022-09-30T19:04:34.056Z,7.93
2022-09-30T19:06:35.856Z,7.25
2022-09-30T19:08:37.458Z,7.03
2022-09-30T19:10:41.655Z,6.70
2022-09-30T19:12:45.929Z,7.60
2022-09-30T19:14:47.830Z,6.32
2022-09-30T19:16:51.311Z,5.70
2022-09-30T19:18:54.779Z,5.05
2022-09-30T19:20:56.426Z,5.60
2022-09-30T19:22:58.373Z,6.72
2022-09-30T19:25:00.147Z,5.35
2022-09-30T19:27:02.112Z,5.68
2022-09-30T19:29:05.474Z,5.68
2022-09-30T19:31:15.413Z,5.80
2022-09-30T19:33:20.108Z,5.55
2022-09-30T19:35:34.476Z,5.93
2022-09-30T19:37:51.128Z,5.93
2022-09-30T19:39:56.734Z,6.22
2022-09-30T19:42:03.158Z,6.28
2022-09-30T19:44:05.948Z,5.68
2022-09-30T19:46:09.839Z,5.40
2022-09-30T19:48:11.538Z,5.43
2022-09-30T19:50:13.211Z,5.47
2022-09-30T19:52:21.947Z,5.15
2022-09-30T19:54:37.482Z,5.93
2022-09-30T19:56:41.624Z,5.90
2022-09-30T19:58:46.106Z,5.22
2022-09-30T20:00:54.010Z,6.15
2022-09-30T20:02:57.582Z,6.18
2022-09-30T20:05:00.581Z,5.85
2022-09-30T20:07:02.274Z,6.22
2022-09-30T20:09:06.277Z,5.85
2022-09-30T20:11:10.928Z,5.75
2022-09-30T20:13:12.505Z,6.80
2022-09-30T20:15:32.794Z,6.35
2022-09-30T20:17:35.038Z,5.97
2022-09-30T20:19:36.669Z,6.43
2022-09-30T20:21:38.542Z,5.63
2022-09-30T20:23:41.106Z,6.00
2022-09-30T20:25:42.944Z,5.40
2022-09-30T20:27:48.615Z,5.97
2022-09-30T20:30:12.166Z,5.15
2022-09-30T20:32:13.749Z,6.30
2022-09-30T20:34:16.803Z,6.20
2022-09-30T20:36:20.089Z,5.38
2022-09-30T20:38:24.892Z,5.78
2022-09-30T20:40:26.714Z,5.22
2022-09-30T20:42:30.972Z,6.15
2022-09-30T20:44:33.210Z,5.30
2022-09-30T20:46:35.163Z,5.82
2022-09-30T20:48:38.411Z,5.60
2022-09-30T20:50:40.207Z,4.70
2022-09-30T20:52:41.850Z,5.05
2022-09-30T20:54:43.728Z,4.47
2022-09-30T20:57:06.388Z,5.00
2022-09-30T20:59:08.538Z,4.78
2022-09-30T21:01:14.451Z,4.95
2022-09-30T21:03:16.262Z,4.43
2022-09-30T21:05:18.353Z,4.63
2022-09-30T21:07:20.346Z,5.43
2022-09-30T21:09:21.961Z,5.38
2022-09-30T21:11:24.371Z,4.72
2022-09-30T21:13:26.538Z,5.00
2022-09-30T21:15:28.715Z,5.53
2022-09-30T21:17:31.386Z,5.82
2022-09-30T21:19:33.286Z,5.65
2022-09-30T21:21:35.269Z,5.28
2022-09-30T21:23:37.483Z,5.35
2022-09-30T21:25:39.254Z,5.57
2022-09-30T21:27:40.958Z,4.95
2022-09-30T21:29:43.709Z,5.28
2022-09-30T21:31:45.500Z,5.53
2022-09-30T21:33:56.418Z,4.70
2022-09-30T21:36:02.566Z,5.05
2022-09-30T21:38:04.275Z,5.38
2022-09-30T21:40:06.469Z,4.80
2022-09-30T21:42:08.161Z,5.47
2022-09-30T21:44:10.085Z,5.22
2022-09-30T21:46:13.921Z,5.25
2022-09-30T21:48:15.564Z,5.25
2022-09-30T21:50:17.242Z,5.95
2022-09-30T21:52:18.858Z,5.70
2022-09-30T21:54:20.490Z,5.38
2022-09-30T21:56:23.002Z,5.97
2022-09-30T21:58:26.056Z,4.95
2022-09-30T22:00:28.041Z,5.60
2022-09-30T22:02:29.765Z,5.65
2022-09-30T22:04:31.837Z,6.20
2022-09-30T22:06:33.691Z,5.57
2022-09-30T22:08:40.853Z,5.50
2022-09-30T22:10:43.474Z,5.97
2022-09-30T22:12:46.414Z,5.70
2022-09-30T22:14:48.040Z,5.80
2022-09-30T22:16:50.023Z,5.38
2022-09-30T22:18:56.165Z,5.32
2022-09-30T22:21:03.575Z,5.45
2022-09-30T22:23:05.180Z,5.22
2022-09-30T22:25:07.730Z,5.45
2022-09-30T22:27:09.374Z,5.03
2022-09-30T22:29:12.187Z,5.60
2022-09-30T22:31:22.349Z,5.83
2022-09-30T22:33:42.493Z,5.82
2022-09-30T22:36:02.979Z,5.68
2022-09-30T22:38:16.639Z,5.47
2022-09-30T22:40:18.269Z,5.53
2022-09-30T22:42:19.973Z,6.03
2022-09-30T22:44:24.763Z,5.75
2022-09-30T22:46:26.719Z,5.60
2022-09-30T22:48:29.878Z,5.97
2022-09-30T22:50:35.591Z,6.15
2022-09-30T22:52:37.201Z,6.78
2022-09-30T22:54:39.050Z,5.93
2022-09-30T22:56:41.030Z,6.20
2022-09-30T22:58:42.636Z,5.95
2022-09-30T23:00:55.229Z,6.05
2022-09-30T23:02:56.950Z,5.75
2022-09-30T23:04:59.705Z,6.18
2022-09-30T23:07:01.394Z,6.03
2022-09-30T23:09:07.125Z,7.05
2022-09-30T23:11:10.563Z,6.30
2022-09-30T23:13:13.379Z,5.90
2022-09-30T23:15:15.361Z,5.80
2022-09-30T23:17:16.964Z,6.35
2022-09-30T23:19:19.208Z,5.95
2022-09-30T23:21:21.278Z,5.95
2022-09-30T23:23:23.117Z,6.10
2022-09-30T23:25:24.747Z,6.70
2022-09-30T23:27:26.424Z,6.47
2022-09-30T23:29:28.055Z,6.25
2022-09-30T23:31:30.096Z,6.03
2022-09-30T23:33:31.826Z,6.05
2022-09-30T23:35:33.539Z,6.28
2022-09-30T23:37:35.197Z,6.15
2022-09-30T23:39:37.026Z,6.47
2022-09-30T23:41:38.986Z,6.20
2022-09-30T23:43:45.817Z,6.70
2022-09-30T23:45:47.792Z,6.88
2022-09-30T23:47:49.527Z,6.57
2022-09-30T23:49:51.160Z,6.88
2022-09-30T23:51:52.805Z,6.25
2022-09-30T23:53:54.729Z,7.00
2022-09-30T23:55:57.903Z,5.90
2022-09-30T23:57:59.507Z,7.22
